Terminal Aerodrome Forecast
Issued by NWS

Home | Current Version | Previous Version | Text Only | Print | Product List | Glossary On
Versions: 1 2 3 4 5 6 7 8 9 10 11 12 13 14 15 16 17 18 19 20 21 22 23
000
FTAK31 PAFA 042320
TAFAOR
TAF
PAOR 042320Z 0500/0524 13004KT P6SM SCT010 BKN040 OVC080
     FM051200 VRB04KT P6SM VCFG BKN035 BKN050 OVC100
     FM052200 03004KT P6SM OVC050=

USA.gov is the U.S. government's official web portal to all federal, state and local government web resources and services.